SBSL/SLZ METAR and TAF weather

Enter ICAO airport designator
Station Type Date Time Source
SBSL METAR 2019/10/23 20:00 UTC NOAA

SBSL 232000Z 36012KT 9999 FEW025 29/24 Q1009


Station Type Date Time Source
SBSL Decoded METAR 2019/10/23 20:00 UTC NOAA

Sao Luiz Aeroporto , Brazil (SBSL) 02-36S 044-14W 53M
Oct 23, 2019 - 04:00 PM EDT / 2019.10.23 2000 UTC
Wind: from the N (360 degrees) at 14 MPH (12 KT):0
Visibility: greater than 7 mile(s):0
Sky conditions: mostly clear
Temperature: 84 F (29 C)
Dew Point: 75 F (24 C)
Relative Humidity: 74%
Pressure (altimeter): 29.80 in. Hg (1009 hPa)
ob: SBSL 232000Z 36012KT 9999 FEW025 29/24 Q1009
cycle: 20

Station Type Date Time Source
SBSL TAF 2019/10/23 18:30 UTC NOAA

TAF SBSL 231500Z 2318/2418 03015KT 9999 BKN020 FEW025TCU TN26/2409Z TX33/2417Z PROB30
TEMPO 2319/2322 TS BKN020 FEW025CB
BECMG 2400/2403 06005KT
BECMG 2410/2412 06015KT
RMK PGZ

Example: see airport list